JBU524 KLAX-KJFK
Flight info
| Callsign | JBU524 |
|---|---|
| Flight time | N/A |
| Altitude | 33000 |
| Route | DOTSS2 CLEEE DCT PKE DCT DRK DCT KA33Q DCT PUMPS DCT DATME DCT ZIGEE DCT WAMIP DCT ZISDA DCT HURDO DCT LMN DCT OBK DCT PMM J70 JHW Q476 WLKES DCT |
| Aircraft | A21N/M-SDE2E3FGHIJ1RWXY/C |
Departure
| Time | 2026-04-25 20:19 |
|---|---|
| Airport | Los Angeles International Airport (KLAX) |
Arrival
| Time | N/A |
|---|---|
| Airport | John F. Kennedy International Airport (KJFK) |
| Time | Latitude | Longitude | Altitude | Speed | Heading |
|---|---|---|---|---|---|
| 2026-04-25 18:48 | 33.94608 | -118.40194 | 123 ft | 0 kts | 108° |
| 2026-04-25 19:11 | 33.94606 | -118.40187 | 125 ft | 0 kts | 108° |
| 2026-04-25 19:12 | 33.94607 | -118.40187 | 125 ft | 0 kts | 108° |
| 2026-04-25 19:12 | 33.94608 | -118.40194 | 128 ft | 0 kts | 108° |
| 2026-04-25 20:04 | 33.94613 | -118.40213 | 128 ft | 3 kts | 111° |
| 2026-04-25 20:04 | 33.94623 | -118.40232 | 123 ft | 3 kts | 141° |
| 2026-04-25 20:04 | 33.94639 | -118.40242 | 127 ft | 3 kts | 190° |
| 2026-04-25 20:04 | 33.94658 | -118.40241 | 124 ft | 3 kts | 168° |
| 2026-04-25 20:05 | 33.94675 | -118.40248 | 127 ft | 3 kts | 170° |
| 2026-04-25 20:05 | 33.94694 | -118.40251 | 126 ft | 3 kts | 174° |
| 2026-04-25 20:05 | 33.94713 | -118.40253 | 127 ft | 3 kts | 174° |
| 2026-04-25 20:05 | 33.94731 | -118.40255 | 124 ft | 3 kts | 174° |
| 2026-04-25 20:06 | 33.94750 | -118.40257 | 126 ft | 3 kts | 174° |
| 2026-04-25 20:06 | 33.94767 | -118.40261 | 126 ft | 3 kts | 167° |
| 2026-04-25 20:06 | 33.94785 | -118.40267 | 126 ft | 3 kts | 144° |
| 2026-04-25 20:06 | 33.94799 | -118.40281 | 126 ft | 3 kts | 129° |
| 2026-04-25 20:07 | 33.94808 | -118.40301 | 125 ft | 3 kts | 107° |
| 2026-04-25 20:07 | 33.94810 | -118.40323 | 123 ft | 3 kts | 90° |
| 2026-04-25 20:07 | 33.94808 | -118.40344 | 123 ft | 3 kts | 84° |
| 2026-04-25 20:07 | 33.94805 | -118.40364 | 124 ft | 1 kts | 84° |
| 2026-04-25 20:08 | 33.94805 | -118.40367 | 124 ft | 0 kts | 84° |
| 2026-04-25 20:15 | 33.94808 | -118.40335 | 128 ft | 6 kts | 76° |
| 2026-04-25 20:15 | 33.94833 | -118.40297 | 126 ft | 13 kts | 28° |
| 2026-04-25 20:16 | 33.94904 | -118.40210 | 124 ft | 16 kts | 83° |
| 2026-04-25 20:16 | 33.94918 | -118.40074 | 124 ft | 13 kts | 83° |
| 2026-04-25 20:16 | 33.94931 | -118.39965 | 128 ft | 13 kts | 74° |
| 2026-04-25 20:16 | 33.94948 | -118.39931 | 126 ft | 0 kts | 45° |
| 2026-04-25 20:17 | 33.94990 | -118.39913 | 126 ft | 7 kts | 359° |
| 2026-04-25 20:17 | 33.95029 | -118.39925 | 126 ft | 5 kts | 321° |
| 2026-04-25 20:17 | 33.95041 | -118.39953 | 124 ft | 3 kts | 274° |
| 2026-04-25 20:18 | 33.95029 | -118.40074 | 128 ft | 29 kts | 261° |
| 2026-04-25 20:18 | 33.94970 | -118.40579 | 127 ft | 93 kts | 261° |
| 2026-04-25 20:18 | 33.94870 | -118.41632 | 136 ft | 155 kts | 259° |
| 2026-04-25 20:18 | 33.94730 | -118.43030 | 422 ft | 175 kts | 258° |
| 2026-04-25 20:19 | 33.94566 | -118.44547 | 835 ft | 197 kts | 260° |
| 2026-04-25 20:19 | 33.94412 | -118.46302 | 1091 ft | 225 kts | 264° |
| 2026-04-25 20:19 | 33.94326 | -118.48207 | 1832 ft | 228 kts | 265° |
| 2026-04-25 20:19 | 33.94251 | -118.50122 | 2687 ft | 231 kts | 264° |
| 2026-04-25 20:20 | 33.94121 | -118.52097 | 3334 ft | 241 kts | 262° |
| 2026-04-25 20:20 | 33.93970 | -118.54107 | 4170 ft | 242 kts | 263° |
| 2026-04-25 20:20 | 33.93811 | -118.56154 | 4898 ft | 249 kts | 263° |
| 2026-04-25 20:20 | 33.93647 | -118.58236 | 5690 ft | 249 kts | 264° |
| 2026-04-25 20:21 | 33.93488 | -118.60281 | 6662 ft | 243 kts | 264° |
| 2026-04-25 20:21 | 33.93320 | -118.62322 | 7376 ft | 248 kts | 261° |
| 2026-04-25 20:21 | 33.92657 | -118.64219 | 8065 ft | 250 kts | 228° |
| 2026-04-25 20:21 | 33.91186 | -118.65284 | 8800 ft | 256 kts | 194° |
| 2026-04-25 20:22 | 33.89374 | -118.65191 | 9589 ft | 263 kts | 171° |
| 2026-04-25 20:22 | 33.88796 | -118.65032 | 9848 ft | 264 kts | 170° |
| 2026-04-25 20:22 | 33.85809 | -118.64267 | 11070 ft | 263 kts | 175° |
| 2026-04-25 20:22 | 33.84021 | -118.63763 | 11810 ft | 270 kts | 161° |
| 2026-04-25 20:23 | 33.82384 | -118.62584 | 12512 ft | 277 kts | 153° |
| 2026-04-25 20:23 | 33.80794 | -118.61240 | 13203 ft | 280 kts | 153° |
| 2026-04-25 20:23 | 33.79203 | -118.59884 | 13892 ft | 282 kts | 154° |
| 2026-04-25 20:23 | 33.77588 | -118.58530 | 14458 ft | 285 kts | 154° |
| 2026-04-25 20:24 | 33.75944 | -118.57171 | 14978 ft | 288 kts | 154° |
| 2026-04-25 20:24 | 33.74280 | -118.55807 | 15493 ft | 291 kts | 154° |
| 2026-04-25 20:24 | 33.72578 | -118.54418 | 16029 ft | 294 kts | 154° |
| 2026-04-25 20:24 | 33.70881 | -118.53039 | 16555 ft | 295 kts | 154° |
| 2026-04-25 20:25 | 33.69281 | -118.51433 | 17056 ft | 311 kts | 134° |
| 2026-04-25 20:25 | 33.68328 | -118.49036 | 17589 ft | 325 kts | 114° |
| 2026-04-25 20:25 | 33.67696 | -118.46419 | 18106 ft | 327 kts | 111° |
| 2026-04-25 20:25 | 33.67344 | -118.43693 | 18587 ft | 336 kts | 95° |
| 2026-04-25 20:26 | 33.67712 | -118.40908 | 19034 ft | 343 kts | 70° |